Time;durP1;ratioP1;P1;durP2;ratioP2;P2;SDS_P1;SDS_P2;PMS_P1;PMS_P2;Temp;Humidity;BMP_temperature;BMP_pressure;BME280_temperature;BME280_humidity;BME280_pressure;Samples;Min_cycle;Max_cycle;Signal;HPM_P1;HPM_P2
2023/07/18 00:00:17;;;;;;;16.52;4.50;;;;;;;13.22;100.00;101982.47;5064825;28;20029;-68
2023/07/18 00:02:43;;;;;;;13.90;4.22;;;;;;;13.14;100.00;101985.03;5061783;28;20029;-67
2023/07/18 00:05:12;;;;;;;15.70;4.60;;;;;;;13.12;100.00;101986.78;5065244;28;20467;-68
2023/07/18 00:07:39;;;;;;;16.13;4.50;;;;;;;13.13;100.00;101991.22;5057579;28;20093;-68
2023/07/18 00:10:05;;;;;;;14.52;4.32;;;;;;;13.10;100.00;101983.22;5064692;28;20119;-67
2023/07/18 00:12:31;;;;;;;14.93;4.13;;;;;;;13.02;100.00;101983.13;5062667;28;20393;-67
2023/07/18 00:14:56;;;;;;;14.40;4.35;;;;;;;13.02;100.00;101980.47;5063458;28;20025;-68
2023/07/18 00:17:21;;;;;;;16.70;4.47;;;;;;;12.91;100.00;101982.09;5063698;28;20422;-67
2023/07/18 00:19:47;;;;;;;17.20;4.40;;;;;;;12.82;100.00;101985.53;5062376;28;20075;-67
2023/07/18 00:22:12;;;;;;;15.20;4.38;;;;;;;12.74;100.00;101989.81;5064641;28;20120;-67
2023/07/18 00:24:38;;;;;;;16.38;4.70;;;;;;;12.76;100.00;101984.56;5061302;28;20491;-68
2023/07/18 00:27:04;;;;;;;15.63;4.40;;;;;;;12.75;100.00;101985.44;5064453;28;20028;-67
2023/07/18 00:29:29;;;;;;;17.48;4.70;;;;;;;12.69;100.00;101984.47;5062405;28;20383;-67
2023/07/18 00:31:55;;;;;;;19.15;4.85;;;;;;;12.68;100.00;101992.41;5061684;28;20029;-67
2023/07/18 00:34:20;;;;;;;16.73;4.65;;;;;;;12.64;100.00;101993.22;5063611;28;20035;-68
2023/07/18 00:36:45;;;;;;;17.13;4.80;;;;;;;12.60;100.00;101989.66;5061166;28;20033;-67
2023/07/18 00:39:12;;;;;;;17.55;4.90;;;;;;;12.58;100.00;101990.50;5064794;28;20032;-68
2023/07/18 00:41:38;;;;;;;16.60;4.57;;;;;;;12.52;100.00;101997.50;5057119;28;20029;-68
2023/07/18 00:44:04;;;;;;;15.82;4.47;;;;;;;12.54;100.00;101989.56;5064031;28;20042;-70
2023/07/18 00:46:29;;;;;;;15.82;4.53;;;;;;;12.54;100.00;101979.84;5062051;28;20033;-69
2023/07/18 00:48:55;;;;;;;16.50;4.40;;;;;;;12.52;100.00;101986.91;5062780;28;20139;-69
2023/07/18 00:51:24;;;;;;;16.85;4.88;;;;;;;12.47;100.00;101985.03;5063099;28;20357;-68
2023/07/18 00:53:50;;;;;;;15.20;4.60;;;;;;;12.37;100.00;101981.34;5062067;28;20555;-69
2023/07/18 00:56:15;;;;;;;14.68;4.57;;;;;;;12.29;100.00;101977.69;5062683;28;20033;-69
2023/07/18 00:58:40;;;;;;;15.27;4.65;;;;;;;12.29;100.00;101975.94;5060927;28;20070;-69
2023/07/18 01:01:06;;;;;;;17.42;4.53;;;;;;;12.26;100.00;101977.66;5064406;28;20033;-69
2023/07/18 01:03:32;;;;;;;16.73;4.55;;;;;;;12.18;100.00;101970.47;5061502;28;20033;-69
2023/07/18 01:05:57;;;;;;;16.08;4.78;;;;;;;12.18;100.00;101977.53;5062888;28;20036;-69
2023/07/18 01:08:23;;;;;;;15.45;4.40;;;;;;;12.12;100.00;101970.38;5062943;28;20425;-69
2023/07/18 01:10:48;;;;;;;15.82;4.57;;;;;;;12.05;100.00;101979.09;5061400;28;20108;-69
2023/07/18 01:13:14;;;;;;;15.25;4.40;;;;;;;12.11;100.00;101975.66;5063870;28;20387;-68
2023/07/18 01:15:39;;;;;;;16.33;4.68;;;;;;;12.11;100.00;101973.88;5060856;28;20079;-69
2023/07/18 01:18:08;;;;;;;15.98;4.50;;;;;;;12.14;100.00;101975.69;5063761;28;20033;-68
2023/07/18 01:20:36;;;;;;;14.82;4.35;;;;;;;12.11;100.00;101973.00;5059914;28;20079;-68
2023/07/18 01:23:05;;;;;;;13.48;4.22;;;;;;;12.11;100.00;101971.22;5063386;28;20029;-66
2023/07/18 01:25:33;;;;;;;16.83;4.43;;;;;;;12.02;100.00;101956.06;5061514;28;20031;-67
2023/07/18 01:27:59;;;;;;;17.42;4.95;;;;;;;11.99;100.00;101961.34;5063069;28;20379;-68
2023/07/18 01:30:27;;;;;;;16.35;4.70;;;;;;;11.97;100.00;101964.81;5062411;28;20041;-65
2023/07/18 01:32:53;;;;;;;16.40;5.05;;;;;;;11.92;100.00;101967.38;5061817;28;20498;-67
2023/07/18 01:35:24;;;;;;;16.85;4.82;;;;;;;11.92;100.00;101971.78;5062994;28;20032;-67
2023/07/18 01:37:51;;;;;;;18.02;5.40;;;;;;;11.92;100.00;101967.38;5061756;28;20079;-67
2023/07/18 01:40:21;;;;;;;17.80;5.70;;;;;;;11.94;100.00;101959.47;5063204;28;20101;-67
2023/07/18 01:42:51;;;;;;;17.40;5.40;;;;;;;11.97;100.00;101960.44;5061245;28;20033;-67
2023/07/18 01:45:18;;;;;;;17.35;5.40;;;;;;;11.93;100.00;101958.59;5063189;28;20021;-67
2023/07/18 01:47:44;;;;;;;17.38;5.13;;;;;;;11.90;100.00;101957.59;5061636;28;20053;-67
2023/07/18 01:50:10;;;;;;;14.95;4.72;;;;;;;11.84;100.00;101953.13;5066132;28;20148;-66
2023/07/18 01:52:36;;;;;;;16.40;5.43;;;;;;;11.83;100.00;101946.91;5064630;28;20538;-66
2023/07/18 01:55:04;;;;;;;18.33;6.10;;;;;;;11.82;100.00;101949.53;5066946;28;20037;-67
2023/07/18 01:57:43;;;;;;;17.38;5.38;;;;;;;11.73;100.00;101950.25;5065087;28;20032;-67
2023/07/18 02:00:11;;;;;;;17.25;5.18;;;;;;;11.70;100.00;101947.56;5067456;28;20087;-67
2023/07/18 02:02:39;;;;;;;17.17;5.65;;;;;;;11.66;100.00;101945.72;5064229;28;20043;-66
2023/07/18 02:05:05;;;;;;;17.50;5.60;;;;;;;11.70;100.00;101939.63;5067203;28;20021;-66
2023/07/18 02:07:31;;;;;;;17.55;5.38;;;;;;;11.74;100.00;101944.13;5064754;28;20028;-66
2023/07/18 02:09:57;;;;;;;17.48;5.40;;;;;;;11.75;100.00;101937.03;5065898;28;20451;-65
2023/07/18 02:12:23;;;;;;;17.33;5.43;;;;;;;11.67;100.00;101934.28;5065815;28;20025;-66
2023/07/18 02:14:48;;;;;;;16.92;5.40;;;;;;;11.69;100.00;101927.22;5064435;28;20151;-67
2023/07/18 02:17:13;;;;;;;17.45;5.43;;;;;;;11.71;100.00;101932.56;5067166;28;20029;-65
2023/07/18 02:19:39;;;;;;;17.27;5.55;;;;;;;11.66;100.00;101935.13;5063677;28;20533;-67
2023/07/18 02:22:04;;;;;;;18.02;5.57;;;;;;;11.63;100.00;101935.97;5066764;28;20021;-67
2023/07/18 02:24:30;;;;;;;18.13;5.90;;;;;;;11.82;100.00;101931.91;5064838;28;20060;-67
2023/07/18 02:26:57;;;;;;;18.95;6.03;;;;;;;11.82;100.00;101934.53;5065273;28;20020;-67
2023/07/18 02:29:22;;;;;;;18.77;5.95;;;;;;;11.86;100.00;101933.69;5065520;28;20469;-67
2023/07/18 02:31:49;;;;;;;17.48;5.60;;;;;;;11.77;100.00;101943.28;5064590;28;20112;-67
2023/07/18 02:34:14;;;;;;;17.98;5.65;;;;;;;11.79;100.00;101938.88;5066627;28;20025;-67
2023/07/18 02:36:39;;;;;;;16.27;5.35;;;;;;;11.74;100.00;101936.16;5063385;28;20033;-68
2023/07/18 02:39:07;;;;;;;18.33;5.13;;;;;;;11.80;100.00;101925.66;5066732;28;20033;-67
2023/07/18 02:41:36;;;;;;;19.45;5.60;;;;;;;11.91;100.00;101925.84;5063889;28;20039;-66
2023/07/18 02:44:03;;;;;;;17.13;5.40;;;;;;;11.80;100.00;101925.66;5066039;28;20427;-67
2023/07/18 02:46:28;;;;;;;17.58;5.40;;;;;;;11.89;100.00;101932.00;5064521;28;20032;-67
2023/07/18 02:48:54;;;;;;;16.92;4.88;;;;;;;11.97;100.00;101933.00;5064391;28;20056;-66
2023/07/18 02:51:19;;;;;;;18.60;5.10;;;;;;;12.00;100.00;101936.63;5065644;28;20029;-67
2023/07/18 02:53:44;;;;;;;18.35;5.10;;;;;;;12.00;100.00;101926.03;5063404;28;20032;-67
2023/07/18 02:56:10;;;;;;;19.27;5.25;;;;;;;12.00;100.00;101923.38;5066493;28;20119;-69
2023/07/18 02:58:35;;;;;;;16.73;5.20;;;;;;;11.96;100.00;101926.84;5063115;28;20430;-68
2023/07/18 03:01:01;;;;;;;17.63;5.38;;;;;;;11.94;100.00;101933.88;5065520;28;20037;-69
2023/07/18 03:03:27;;;;;;;18.42;5.30;;;;;;;11.92;100.00;101932.91;5064413;28;20529;-69
2023/07/18 03:05:53;;;;;;;18.70;5.40;;;;;;;11.94;100.00;101933.88;5064197;28;20029;-69
2023/07/18 03:08:19;;;;;;;18.52;5.47;;;;;;;11.95;100.00;101926.81;5065411;28;20471;-68
2023/07/18 03:10:46;;;;;;;17.65;5.10;;;;;;;11.96;100.00;101921.53;5062787;28;20032;-68
2023/07/18 03:13:12;;;;;;;18.42;5.55;;;;;;;11.95;100.00;101930.34;5066292;28;20054;-68
2023/07/18 03:15:38;;;;;;;18.08;5.40;;;;;;;11.93;100.00;101923.22;5061372;28;20167;-68
2023/07/18 03:18:04;;;;;;;17.73;5.40;;;;;;;11.91;100.00;101917.00;5065303;28;20093;-68
2023/07/18 03:20:29;;;;;;;17.27;5.43;;;;;;;11.95;100.00;101929.47;5063977;28;20502;-68
2023/07/18 03:22:54;;;;;;;18.63;5.30;;;;;;;11.94;100.00;101917.06;5064221;28;20523;-68
2023/07/18 03:25:20;;;;;;;18.55;5.28;;;;;;;11.92;100.00;101918.78;5064985;28;20361;-68
2023/07/18 03:27:47;;;;;;;17.58;5.13;;;;;;;11.86;100.00;101914.28;5062903;28;20064;-68
2023/07/18 03:30:13;;;;;;;16.88;5.00;;;;;;;11.85;100.00;101920.44;5065590;28;20024;-68
2023/07/18 03:32:39;;;;;;;17.90;5.05;;;;;;;11.84;100.00;101916.91;5058223;28;20033;-68
2023/07/18 03:35:06;;;;;;;17.85;4.97;;;;;;;11.86;100.00;101916.94;5065304;28;20031;-69
2023/07/18 03:37:32;;;;;;;15.80;4.80;;;;;;;11.84;100.00;101910.72;5063059;28;20067;-68
2023/07/18 03:39:58;;;;;;;17.33;4.97;;;;;;;11.83;100.00;101920.41;5064368;28;20476;-69
2023/07/18 03:42:23;;;;;;;17.27;4.88;;;;;;;11.82;100.00;101923.94;5064267;28;20116;-66
2023/07/18 03:44:49;;;;;;;15.63;4.75;;;;;;;11.79;100.00;101917.69;5062776;28;20025;-66
2023/07/18 03:47:14;;;;;;;17.60;5.07;;;;;;;11.79;100.00;101928.28;5065175;28;20043;-67
2023/07/18 03:49:39;;;;;;;18.10;5.20;;;;;;;11.74;100.00;101922.03;5061912;28;20053;-67
2023/07/18 03:52:05;;;;;;;16.27;4.63;;;;;;;11.71;100.00;101925.53;5064834;28;20032;-67
2023/07/18 03:54:33;;;;;;;18.13;4.90;;;;;;;11.70;100.00;101926.38;5062813;28;20486;-62
2023/07/18 03:56:58;;;;;;;18.08;5.00;;;;;;;11.65;100.00;101926.31;5064282;28;20475;-61
2023/07/18 03:59:23;;;;;;;16.00;5.03;;;;;;;11.64;100.00;101923.63;5063850;28;20052;-67
2023/07/18 04:01:49;;;;;;;18.52;5.40;;;;;;;11.61;100.00;101924.47;5062751;28;20112;-62
2023/07/18 04:04:15;;;;;;;17.65;5.35;;;;;;;11.58;100.00;101916.47;5065254;28;20032;-61
2023/07/18 04:06:41;;;;;;;17.23;4.82;;;;;;;11.50;100.00;101913.69;5060423;28;20116;-67
2023/07/18 04:09:07;;;;;;;17.05;5.18;;;;;;;11.49;100.00;101911.91;5064822;28;20391;-67
2023/07/18 04:11:32;;;;;;;16.70;5.20;;;;;;;11.50;100.00;101902.19;5061750;28;20029;-66
2023/07/18 04:13:57;;;;;;;18.25;5.43;;;;;;;11.52;100.00;101903.13;5063231;28;20103;-67
2023/07/18 04:16:23;;;;;;;14.48;4.72;;;;;;;11.51;100.00;101898.69;5063856;28;20032;-66
2023/07/18 04:18:48;;;;;;;19.98;5.55;;;;;;;11.49;100.00;101898.66;5061899;28;20048;-67
2023/07/18 04:21:13;;;;;;;17.75;5.53;;;;;;;11.47;100.00;101900.38;5064879;28;20095;-67
2023/07/18 04:23:39;;;;;;;18.75;5.00;;;;;;;11.45;100.00;101888.88;5061551;28;20434;-64
2023/07/18 04:26:04;;;;;;;18.45;5.13;;;;;;;11.44;100.00;101889.72;5064257;28;20484;-67
2023/07/18 04:28:34;;;;;;;18.17;4.93;;;;;;;11.42;100.00;101886.19;5062650;28;20036;-67
2023/07/18 04:31:01;;;;;;;17.42;5.00;;;;;;;11.42;100.00;101890.59;5063400;28;20036;-67
2023/07/18 04:33:27;;;;;;;16.67;5.10;;;;;;;11.40;100.00;101894.97;5062925;28;20043;-66
2023/07/18 04:35:53;;;;;;;18.05;5.20;;;;;;;11.40;100.00;101893.22;5062278;28;20025;-66
2023/07/18 04:38:18;;;;;;;15.60;4.97;;;;;;;11.43;100.00;101893.28;5064202;28;20025;-65
2023/07/18 04:40:44;;;;;;;17.40;5.05;;;;;;;11.49;100.00;101893.38;5061117;28;20059;-66
2023/07/18 04:43:09;;;;;;;15.57;4.90;;;;;;;11.55;100.00;101899.63;5064690;28;20070;-66
2023/07/18 04:45:45;;;;;;;18.55;5.10;;;;;;;11.58;100.00;101897.06;5061919;28;20123;-67
2023/07/18 04:48:15;;;;;;;16.38;4.80;;;;;;;11.65;100.00;101891.88;5056969;28;20099;-66
2023/07/18 04:50:41;;;;;;;16.88;4.97;;;;;;;11.75;100.00;101890.28;5056730;28;20061;-65
2023/07/18 04:53:07;;;;;;;16.08;4.80;;;;;;;11.79;100.00;101892.09;5064180;28;20082;-62
2023/07/18 04:55:34;;;;;;;16.88;4.72;;;;;;;11.82;100.00;101892.16;5061729;28;20043;-68
2023/07/18 04:58:01;;;;;;;17.98;4.80;;;;;;;11.89;100.00;101889.59;5063029;28;20418;-68
2023/07/18 05:00:28;;;;;;;16.33;4.65;;;;;;;11.96;100.00;101888.84;5062988;28;20372;-67
2023/07/18 05:02:53;;;;;;;16.20;4.80;;;;;;;12.01;100.00;101887.16;5062019;28;20032;-68
2023/07/18 05:05:19;;;;;;;16.50;4.72;;;;;;;12.06;100.00;101885.47;5063695;28;20032;-64
2023/07/18 05:07:46;;;;;;;15.82;4.22;;;;;;;12.13;100.00;101874.09;5060947;28;20025;-64
2023/07/18 05:10:12;;;;;;;14.63;4.47;;;;;;;12.19;100.00;101882.13;5064166;28;20041;-69
2023/07/18 05:12:38;;;;;;;16.45;4.50;;;;;;;12.22;100.00;101886.59;5060938;28;20534;-61
2023/07/18 05:15:04;;;;;;;16.45;4.47;;;;;;;12.21;100.00;101880.38;5063497;28;20115;-68
2023/07/18 05:17:30;;;;;;;17.25;4.43;;;;;;;12.27;100.00;101884.88;5062014;28;20037;-64
2023/07/18 05:19:55;;;;;;;14.55;4.38;;;;;;;12.30;100.00;101884.03;5062087;28;20086;-68
2023/07/18 05:22:20;;;;;;;16.13;4.50;;;;;;;12.35;100.00;101883.22;5065343;28;20036;-66
2023/07/18 05:24:46;;;;;;;18.58;4.50;;;;;;;12.43;100.00;101880.66;5063645;28;20037;-65
2023/07/18 05:27:11;;;;;;;16.35;4.60;;;;;;;12.47;100.00;101881.63;5068399;28;20036;-66
2023/07/18 05:29:37;;;;;;;17.75;4.47;;;;;;;12.52;100.00;101886.13;5065119;28;20120;-63
2023/07/18 05:32:02;;;;;;;17.08;4.60;;;;;;;12.55;100.00;101888.81;5066879;28;20392;-64
2023/07/18 05:34:27;;;;;;;16.80;4.43;;;;;;;12.63;100.00;101878.28;5066152;28;20134;-66
2023/07/18 05:36:53;;;;;;;16.60;4.35;;;;;;;12.64;100.00;101882.72;5065823;28;20151;-68
2023/07/18 05:39:18;;;;;;;18.10;4.80;;;;;;;12.68;100.00;101879.25;5067353;28;20032;-66
2023/07/18 05:41:43;;;;;;;17.90;5.00;;;;;;;12.73;100.00;101880.16;5064340;28;20379;-61
2023/07/18 05:44:10;;;;;;;17.38;4.65;;;;;;;12.78;100.00;101880.22;5067768;28;20078;-68
2023/07/18 05:46:35;;;;;;;16.40;4.65;;;;;;;12.84;100.00;101885.63;5064754;28;20056;-69
2023/07/18 05:49:00;;;;;;;15.18;4.40;;;;;;;12.94;100.00;101885.72;5061967;28;20044;-62
2023/07/18 05:51:26;;;;;;;18.25;4.88;;;;;;;12.99;100.00;101881.31;5066565;28;20053;-61
2023/07/18 05:53:51;;;;;;;16.23;4.40;;;;;;;13.05;100.00;101884.94;5065432;28;20052;-61
2023/07/18 05:56:16;;;;;;;13.90;4.00;;;;;;;13.12;100.00;101883.25;5065400;28;20107;-61
2023/07/18 05:58:42;;;;;;;16.70;4.63;;;;;;;13.19;100.00;101894.81;5066659;28;20021;-60
2023/07/18 06:01:13;;;;;;;15.98;4.60;;;;;;;13.25;100.00;101897.53;5064821;28;20033;-60
2023/07/18 06:03:39;;;;;;;16.63;4.43;;;;;;;13.30;100.00;101892.28;5065989;28;20040;-61
2023/07/18 06:06:05;;;;;;;18.45;4.72;;;;;;;13.37;100.00;101896.81;5064836;28;20033;-60
2023/07/18 06:08:31;;;;;;;16.60;4.60;;;;;;;13.42;100.00;101901.28;5066724;28;20074;-60
2023/07/18 06:10:56;;;;;;;17.52;4.45;;;;;;;13.49;100.00;101901.34;5063712;28;20533;-61
2023/07/18 06:13:23;;;;;;;16.25;4.63;;;;;;;13.55;100.00;101896.09;5064392;28;20111;-60
2023/07/18 06:15:50;;;;;;;16.27;4.35;;;;;;;13.63;100.00;101897.06;5066898;28;20108;-60
2023/07/18 06:18:16;;;;;;;17.48;4.60;;;;;;;13.69;100.00;101897.09;5063745;28;20029;-62
2023/07/18 06:20:41;;;;;;;15.73;4.30;;;;;;;13.76;100.00;101890.94;5066764;28;20032;-62
2023/07/18 06:23:07;;;;;;;16.55;4.20;;;;;;;13.85;100.00;101898.09;5064143;28;20039;-61
2023/07/18 06:25:32;;;;;;;15.05;4.00;;;;;;;13.93;100.00;101888.41;5066671;28;20032;-61
2023/07/18 06:27:58;;;;;;;18.95;4.63;;;;;;;14.02;100.00;101890.22;5064009;28;20083;-61
2023/07/18 06:30:23;;;;;;;17.42;4.10;;;;;;;14.15;100.00;101895.63;5065293;28;20120;-61
2023/07/18 06:32:49;;;;;;;14.05;4.10;;;;;;;14.22;100.00;101892.13;5065187;28;20368;-62
2023/07/18 06:35:15;;;;;;;16.38;3.92;;;;;;;14.29;100.00;101891.28;5063011;28;20038;-60
2023/07/18 06:37:41;;;;;;;18.98;4.45;;;;;;;14.40;100.00;101894.00;5064617;28;20025;-61
2023/07/18 06:40:10;;;;;;;15.30;3.85;;;;;;;14.48;100.00;101892.28;5065659;28;20142;-61
2023/07/18 06:42:36;;;;;;;15.63;4.10;;;;;;;14.58;100.00;101896.75;5064432;28;20040;-59
2023/07/18 06:45:03;;;;;;;17.10;4.00;;;;;;;14.65;100.00;101889.72;5066181;28;20393;-60
2023/07/18 06:47:29;;;;;;;15.57;3.70;;;;;;;14.71;100.00;101888.84;5063965;28;20040;-60
2023/07/18 06:49:54;;;;;;;15.43;3.80;;;;;;;14.78;100.00;101890.66;5065931;28;20052;-60
2023/07/18 06:52:20;;;;;;;13.52;3.60;;;;;;;14.86;100.00;101886.25;5063196;28;20013;-60
2023/07/18 06:54:46;;;;;;;13.98;3.70;;;;;;;14.87;100.00;101888.03;5059206;28;20025;-63
2023/07/18 06:57:12;;;;;;;14.05;3.42;;;;;;;14.91;100.00;101887.16;5065310;28;20032;-65
2023/07/18 06:59:37;;;;;;;14.10;3.50;;;;;;;14.96;100.00;101880.06;5064056;28;20506;-65
2023/07/18 07:02:03;;;;;;;11.23;3.20;;;;;;;15.09;100.00;101882.78;5065034;28;20107;-66
2023/07/18 07:04:29;;;;;;;15.27;3.70;;;;;;;15.17;100.00;101878.31;5063112;28;20040;-66
2023/07/18 07:06:54;;;;;;;12.40;3.00;;;;;;;15.25;100.00;101881.03;5066242;28;20071;-63
2023/07/18 07:09:20;;;;;;;9.82;2.80;;;;;;;15.36;100.00;101881.03;5062657;28;20029;-62
2023/07/18 07:11:45;;;;;;;14.30;3.33;;;;;;;15.46;100.00;101883.69;5064639;28;20020;-61
2023/07/18 07:14:13;;;;;;;13.93;2.70;;;;;;;15.57;100.00;101891.69;5066119;28;20082;-64
2023/07/18 07:16:39;;;;;;;9.95;2.60;;;;;;;15.62;100.00;101883.69;5063098;28;20483;-63
2023/07/18 07:19:05;;;;;;;9.48;2.45;;;;;;;15.77;100.00;101875.72;5064546;28;20035;-63
2023/07/18 07:21:31;;;;;;;9.93;2.50;;;;;;;15.87;100.00;101873.94;5061512;28;20033;-67
2023/07/18 07:23:56;;;;;;;10.25;2.60;;;;;;;16.02;100.00;101876.59;5062562;28;20120;-66
2023/07/18 07:26:22;;;;;;;9.38;2.40;;;;;;;16.14;100.00;101880.13;5065266;28;20425;-66
2023/07/18 07:28:47;;;;;;;13.82;2.60;;;;;;;16.22;100.00;101883.63;5063589;28;20029;-66
2023/07/18 07:31:14;;;;;;;8.52;2.35;;;;;;;16.27;100.00;101878.31;5063715;28;20548;-68
2023/07/18 07:33:40;;;;;;;8.55;2.20;;;;;;;16.42;100.00;101877.38;5059822;28;20033;-69
2023/07/18 07:36:05;;;;;;;11.63;2.50;;;;;;;16.56;100.00;101878.22;5059887;28;20356;-65
2023/07/18 07:38:30;;;;;;;8.07;2.35;;;;;;;16.77;100.00;101879.00;5064874;28;20033;-66
2023/07/18 07:40:56;;;;;;;8.98;2.40;;;;;;;16.78;100.00;101886.13;5063358;28;20513;-62
2023/07/18 07:43:21;;;;;;;9.13;2.50;;;;;;;16.72;100.00;101879.91;5063550;28;20032;-66
2023/07/18 07:45:46;;;;;;;10.38;2.33;;;;;;;16.77;100.00;101873.66;5064392;28;20115;-65
2023/07/18 07:48:12;;;;;;;8.38;2.20;;;;;;;16.84;100.00;101880.75;5062335;28;20472;-64
2023/07/18 07:50:37;;;;;;;10.90;2.30;;;;;;;16.89;100.00;101874.53;5064601;28;20059;-65
2023/07/18 07:53:03;;;;;;;6.65;2.28;;;;;;;16.95;100.00;101886.03;5061787;28;20068;-63
2023/07/18 07:55:28;;;;;;;11.02;2.28;;;;;;;17.02;100.00;101871.75;5064921;28;20052;-66
2023/07/18 07:57:53;;;;;;;9.57;2.30;;;;;;;17.03;100.00;101877.09;5062584;28;20111;-66
2023/07/18 08:00:19;;;;;;;10.02;2.30;;;;;;;17.17;100.00;101873.44;5061413;28;20483;-66
2023/07/18 08:02:45;;;;;;;7.13;2.10;;;;;;;17.30;100.00;101885.84;5064104;28;20478;-65
2023/07/18 08:05:10;;;;;;;8.75;2.20;;;;;;;17.50;100.00;101866.06;5063192;28;20038;-62
2023/07/18 08:07:36;;;;;;;8.52;2.30;;;;;;;17.68;100.00;101876.63;5062597;28;20496;-63
2023/07/18 08:10:03;;;;;;;6.60;2.10;;;;;;;17.74;100.00;101873.00;5064488;28;20395;-67
2023/07/18 08:12:28;;;;;;;10.20;2.30;;;;;;;17.77;100.00;101862.28;5062676;28;20507;-63
2023/07/18 08:14:53;;;;;;;5.70;2.20;;;;;;;17.78;100.00;101862.25;5064317;28;20025;-67
2023/07/18 08:17:19;;;;;;;5.55;2.20;;;;;;;18.03;100.00;101867.41;5061559;28;20029;-64
2023/07/18 08:19:44;;;;;;;6.10;1.95;;;;;;;18.33;100.00;101867.06;5063648;28;20537;-66
2023/07/18 08:22:10;;;;;;;7.75;2.30;;;;;;;18.43;84.63;101866.94;5056813;28;20399;-63
2023/07/18 08:24:36;;;;;;;5.07;1.77;;;;;;;18.58;79.24;101864.97;5061652;28;20086;-67
2023/07/18 08:27:02;;;;;;;5.68;1.80;;;;;;;18.66;76.73;101859.53;5058120;28;20013;-65
2023/07/18 08:29:30;;;;;;;3.92;1.80;;;;;;;18.60;73.65;101863.16;5063006;28;20044;-64
2023/07/18 08:31:55;;;;;;;7.00;1.70;;;;;;;18.58;74.22;101860.50;5063403;28;20028;-64
2023/07/18 08:34:21;;;;;;;10.07;1.90;;;;;;;18.60;72.20;101853.34;5061613;28;20056;-62
2023/07/18 08:36:47;;;;;;;7.88;1.90;;;;;;;18.68;73.02;101860.38;5062585;28;20040;-66
2023/07/18 08:39:16;;;;;;;5.63;2.00;;;;;;;18.62;67.97;101856.00;5062902;28;20040;-70
2023/07/18 08:41:43;;;;;;;7.18;1.80;;;;;;;18.68;68.76;101855.91;5060799;28;20035;-70
2023/07/18 08:44:14;;;;;;;3.00;1.52;;;;;;;18.85;69.00;101847.66;5062677;28;20059;-69
2023/07/18 08:46:46;;;;;;;2.97;1.50;;;;;;;19.03;66.61;101846.50;5062587;28;20467;-69
2023/07/18 08:49:14;;;;;;;4.28;1.60;;;;;;;19.26;64.43;101839.91;5063725;28;20078;-69
2023/07/18 08:51:41;;;;;;;4.82;1.50;;;;;;;19.42;64.28;101838.75;5060948;28;20047;-69
2023/07/18 08:54:07;;;;;;;3.65;1.60;;;;;;;19.44;63.04;101842.31;5063761;28;20048;-69
2023/07/18 08:56:32;;;;;;;4.68;1.90;;;;;;;19.48;64.91;101837.75;5061624;28;20536;-69
2023/07/18 08:59:02;;;;;;;5.80;1.77;;;;;;;19.57;64.45;101842.06;5062285;28;20044;-69
2023/07/18 09:01:28;;;;;;;6.10;1.65;;;;;;;19.69;65.50;101831.16;5062880;28;20387;-69
2023/07/18 09:03:55;;;;;;;5.57;1.60;;;;;;;19.77;62.63;101828.31;5061134;28;20021;-69
2023/07/18 09:06:21;;;;;;;6.22;1.85;;;;;;;19.75;61.08;101827.47;5062910;28;20032;-69
2023/07/18 09:08:48;;;;;;;6.38;1.73;;;;;;;19.84;62.18;101830.88;5061814;28;20110;-69
2023/07/18 09:11:18;;;;;;;6.72;1.80;;;;;;;19.90;60.36;101829.00;5063724;28;20037;-69
2023/07/18 09:13:43;;;;;;;6.53;1.70;;;;;;;19.99;59.79;101823.47;5061095;28;20051;-69
2023/07/18 09:16:20;;;;;;;7.40;1.80;;;;;;;20.14;62.02;101820.47;5064373;28;20506;-63
2023/07/18 09:18:49;;;;;;;4.28;1.60;;;;;;;20.41;59.63;101825.31;5058890;28;20111;-68
2023/07/18 09:21:15;;;;;;;7.80;1.95;;;;;;;20.65;57.55;101824.78;5063565;28;20025;-67
2023/07/18 09:23:42;;;;;;;7.60;2.20;;;;;;;20.89;59.19;101809.91;5060759;28;20037;-67
2023/07/18 09:26:13;;;;;;;7.25;1.77;;;;;;;21.11;59.06;101812.09;5064180;28;20082;-67
2023/07/18 09:28:41;;;;;;;6.78;2.00;;;;;;;21.30;58.29;101800.88;5056939;28;20025;-67
2023/07/18 09:31:23;;;;;;;6.65;1.90;;;;;;;21.35;57.69;101804.34;5056402;28;20032;-68
2023/07/18 09:33:50;;;;;;;7.05;1.88;;;;;;;21.35;57.61;101805.22;5059453;28;20059;-67
2023/07/18 09:36:20;;;;;;;7.70;1.92;;;;;;;21.35;57.74;101802.53;5063345;28;20404;-67
2023/07/18 09:38:47;;;;;;;3.38;1.80;;;;;;;21.66;59.55;101787.44;5061215;28;20025;-67
2023/07/18 09:41:20;;;;;;;4.63;1.95;;;;;;;22.06;56.85;101794.38;5063632;28;20099;-66
2023/07/18 09:43:46;;;;;;;6.85;1.88;;;;;;;22.21;55.76;101802.00;5061050;28;20021;-66
2023/07/18 09:46:13;;;;;;;6.38;1.90;;;;;;;22.03;55.96;101794.47;5063877;28;20349;-67
2023/07/18 09:48:40;;;;;;;5.75;1.90;;;;;;;21.89;55.49;101797.56;5060441;28;20434;-67
2023/07/18 09:51:09;;;;;;;8.88;2.00;;;;;;;21.87;53.36;101797.59;5063590;28;20087;-66
2023/07/18 09:53:35;;;;;;;7.05;1.80;;;;;;;21.80;54.64;101801.41;5060706;28;20052;-67
2023/07/18 09:56:01;;;;;;;4.95;2.03;;;;;;;21.69;53.54;101798.09;5063129;28;20572;-68
2023/07/18 09:58:27;;;;;;;7.07;2.00;;;;;;;21.82;55.37;101801.34;5061467;28;20120;-65
2023/07/18 10:00:55;;;;;;;8.15;1.90;;;;;;;22.17;56.99;101794.94;5062240;28;20029;-68
2023/07/18 10:03:22;;;;;;;5.18;1.80;;;;;;;22.70;53.91;101783.53;5057092;28;20388;-67
2023/07/18 10:05:48;;;;;;;6.55;1.80;;;;;;;23.46;52.76;101781.00;5063470;28;20067;-66
2023/07/18 10:08:14;;;;;;;5.72;1.80;;;;;;;25.21;48.28;101780.69;5060617;28;20037;-67
2023/07/18 10:10:39;;;;;;;5.10;1.80;;;;;;;26.27;43.84;101786.81;5066881;28;20028;-67
2023/07/18 10:13:05;;;;;;;7.00;1.83;;;;;;;26.51;41.87;101772.19;5065035;28;20025;-67
2023/07/18 10:16:13;;;;;;;5.50;1.80;;;;;;;26.33;43.37;101782.94;5065843;28;20472;-68
2023/07/18 10:18:46;;;;;;;4.30;1.85;;;;;;;26.56;43.22;101767.41;5053499;28;20479;-68
2023/07/18 10:21:13;;;;;;;7.60;2.03;;;;;;;26.99;39.70;101761.75;5067150;28;20032;-67
2023/07/18 10:23:43;;;;;;;6.82;1.90;;;;;;;26.70;41.85;101748.66;5064103;28;20029;-64
2023/07/18 10:26:09;;;;;;;8.80;2.00;;;;;;;26.10;41.85;101748.81;5066242;28;20028;-68
2023/07/18 10:28:42;;;;;;;8.23;1.98;;;;;;;25.00;45.10;101740.06;5060920;28;20537;-68
2023/07/18 10:31:07;;;;;;;7.15;1.90;;;;;;;23.76;45.99;101738.56;5065841;28;20404;-69
2023/07/18 10:33:33;;;;;;;4.85;1.80;;;;;;;24.39;44.87;101743.41;5063839;28;20036;-69
2023/07/18 10:35:58;;;;;;;6.40;1.90;;;;;;;25.26;42.06;101739.91;5064829;28;20466;-68
2023/07/18 10:38:23;;;;;;;10.60;2.00;;;;;;;26.96;41.04;101743.78;5065442;28;20444;-69
2023/07/18 10:40:49;;;;;;;4.40;1.70;;;;;;;27.30;39.71;101733.88;5065034;28;20128;-69
2023/07/18 10:43:16;;;;;;;9.23;1.95;;;;;;;28.16;40.28;101742.00;5063705;28;20025;-70
2023/07/18 10:45:42;;;;;;;4.80;1.70;;;;;;;29.37;36.84;101741.38;5064906;28;20032;-68
2023/07/18 10:48:11;;;;;;;3.63;1.40;;;;;;;30.69;35.52;101742.16;5063123;28;20545;-70
2023/07/18 10:50:36;;;;;;;7.57;2.00;;;;;;;29.07;35.64;101736.81;5059283;28;20061;-70
2023/07/18 10:53:01;;;;;;;8.68;1.90;;;;;;;30.33;35.53;101732.66;5062830;28;20111;-68
2023/07/18 10:55:27;;;;;;;4.15;1.63;;;;;;;31.84;31.44;101737.94;5061996;28;20035;-61
2023/07/18 10:57:53;;;;;;;4.20;1.67;;;;;;;30.59;33.58;101737.31;5063552;28;20516;-66
2023/07/18 11:00:20;;;;;;;5.70;1.73;;;;;;;28.89;36.26;101725.16;5065684;28;20021;-66
2023/07/18 11:02:45;;;;;;;4.53;1.67;;;;;;;28.94;36.62;101720.34;5064228;28;20059;-67
2023/07/18 11:05:12;;;;;;;5.60;1.90;;;;;;;28.90;35.86;101717.91;5064603;28;20060;-69
2023/07/18 11:07:43;;;;;;;6.07;1.52;;;;;;;29.26;35.77;101719.41;5065294;28;20017;-65
2023/07/18 11:10:13;;;;;;;3.30;1.58;;;;;;;29.97;34.60;101728.63;5063917;28;20368;-62